createdAt,value
2022-10-19T00:01:52.527Z,99.90
2022-10-19T00:04:19.340Z,99.90
2022-10-19T00:06:51.765Z,99.90
2022-10-19T00:09:31.666Z,99.90
2022-10-19T00:12:11.242Z,99.90
2022-10-19T00:15:03.771Z,99.90
2022-10-19T00:17:35.053Z,99.90
2022-10-19T00:20:11.840Z,99.90
2022-10-19T00:25:43.587Z,99.90
2022-10-19T00:28:22.670Z,99.90
2022-10-19T00:31:37.079Z,99.90
2022-10-19T00:37:19.398Z,99.90
2022-10-19T00:40:02.562Z,99.90
2022-10-19T00:42:41.723Z,99.90
2022-10-19T00:45:26.105Z,99.90
2022-10-19T00:48:07.975Z,99.90
2022-10-19T00:50:38.933Z,99.90
2022-10-19T00:53:07.833Z,99.90
2022-10-19T00:55:37.848Z,99.90
2022-10-19T00:58:08.151Z,99.90
2022-10-19T01:00:42.872Z,99.90
2022-10-19T01:03:11.445Z,99.90
2022-10-19T01:05:45.762Z,99.90
2022-10-19T01:11:28.897Z,99.90
2022-10-19T01:14:02.155Z,99.90
2022-10-19T01:16:40.046Z,99.90
2022-10-19T01:19:21.283Z,99.90
2022-10-19T01:21:55.862Z,99.90
2022-10-19T01:24:47.912Z,99.90
2022-10-19T01:27:48.116Z,99.90
2022-10-19T01:30:17.967Z,99.90
2022-10-19T01:33:11.375Z,99.90
2022-10-19T01:35:39.662Z,99.90
2022-10-19T01:38:20.178Z,99.90
2022-10-19T01:40:59.653Z,99.90
2022-10-19T01:43:31.926Z,99.90
2022-10-19T01:46:23.190Z,99.90
2022-10-19T01:48:59.092Z,99.90
2022-10-19T01:51:39.611Z,99.90
2022-10-19T01:54:10.176Z,99.90
2022-10-19T01:56:54.471Z,99.90
2022-10-19T01:59:26.942Z,99.90
2022-10-19T02:01:55.195Z,99.90
2022-10-19T02:04:28.573Z,99.90
2022-10-19T02:06:59.914Z,99.90
2022-10-19T02:09:36.634Z,99.90
2022-10-19T02:12:07.711Z,99.90
2022-10-19T02:14:44.484Z,99.90
2022-10-19T02:17:20.615Z,99.90
2022-10-19T02:19:50.763Z,99.90
2022-10-19T02:22:23.911Z,99.90
2022-10-19T02:24:58.620Z,99.90
2022-10-19T02:27:37.600Z,99.90
2022-10-19T02:32:48.061Z,99.90
2022-10-19T02:35:29.829Z,99.90
2022-10-19T02:38:01.885Z,99.90
2022-10-19T02:40:43.579Z,99.90
2022-10-19T02:43:19.362Z,99.90
2022-10-19T02:45:57.528Z,99.90
2022-10-19T02:48:26.346Z,99.90
2022-10-19T02:51:00.557Z,99.90
2022-10-19T02:53:27.642Z,99.90
2022-10-19T02:56:05.380Z,99.90
2022-10-19T02:58:40.356Z,99.90
2022-10-19T03:01:09.379Z,99.90
2022-10-19T03:03:38.556Z,99.90
2022-10-19T03:06:05.477Z,99.90
2022-10-19T03:08:38.050Z,99.90
2022-10-19T03:11:04.905Z,99.90
2022-10-19T03:13:38.071Z,99.90
2022-10-19T03:16:41.487Z,99.90
2022-10-19T03:19:20.826Z,99.90
2022-10-19T03:21:52.172Z,99.90
2022-10-19T03:24:22.697Z,99.90
2022-10-19T03:26:57.323Z,99.90
2022-10-19T03:29:44.746Z,99.90
2022-10-19T03:32:41.594Z,99.90
2022-10-19T03:35:30.090Z,99.90
2022-10-19T03:37:56.490Z,99.90
2022-10-19T03:40:22.915Z,99.90
2022-10-19T03:42:49.319Z,99.90
2022-10-19T03:45:15.860Z,99.90
2022-10-19T03:47:42.264Z,99.90
2022-10-19T03:50:11.158Z,99.90
2022-10-19T03:52:37.580Z,99.90
2022-10-19T03:55:04.200Z,99.90
2022-10-19T03:57:30.724Z,99.90
2022-10-19T03:59:57.226Z,99.90
2022-10-19T04:02:23.631Z,99.90
2022-10-19T04:04:50.055Z,99.90
2022-10-19T04:07:16.460Z,99.90
2022-10-19T04:09:42.867Z,99.90
2022-10-19T04:12:09.284Z,99.90
2022-10-19T04:14:52.527Z,99.90
2022-10-19T04:17:22.124Z,99.90
2022-10-19T04:19:48.534Z,99.90
2022-10-19T04:22:15.303Z,99.90
2022-10-19T04:24:41.823Z,99.90
2022-10-19T04:27:08.231Z,99.90
2022-10-19T04:29:34.795Z,99.90
2022-10-19T04:32:01.223Z,99.90
2022-10-19T04:34:27.645Z,99.90
2022-10-19T04:36:54.082Z,99.90
2022-10-19T04:39:20.514Z,99.90
2022-10-19T04:41:46.931Z,99.90
2022-10-19T04:44:13.448Z,99.90
2022-10-19T04:46:40.423Z,99.90
2022-10-19T04:49:06.959Z,99.90
2022-10-19T04:51:33.519Z,99.90
2022-10-19T04:54:00.108Z,99.90
2022-10-19T04:56:27.124Z,99.90
2022-10-19T04:58:59.707Z,99.90
2022-10-19T05:01:27.132Z,99.90
2022-10-19T05:06:30.162Z,99.90
2022-10-19T05:08:56.708Z,99.90
2022-10-19T05:11:23.405Z,99.90
2022-10-19T05:13:50.261Z,99.90
2022-10-19T05:16:21.538Z,99.90
2022-10-19T05:19:01.525Z,99.90
2022-10-19T05:21:28.993Z,99.90
2022-10-19T05:23:56.206Z,99.90
2022-10-19T05:26:23.649Z,99.90
2022-10-19T05:28:51.125Z,99.90
2022-10-19T05:31:19.152Z,99.90
2022-10-19T05:33:45.711Z,99.90
2022-10-19T05:36:25.419Z,99.90
2022-10-19T05:38:52.630Z,99.90
2022-10-19T05:41:20.099Z,99.90
2022-10-19T05:43:47.554Z,99.90
2022-10-19T05:46:15.074Z,99.90
2022-10-19T05:48:41.571Z,99.90
2022-10-19T05:51:10.303Z,99.90
2022-10-19T05:56:09.055Z,99.90
2022-10-19T05:58:35.570Z,99.90
2022-10-19T06:01:02.498Z,99.90
2022-10-19T06:03:29.116Z,99.90
2022-10-19T06:05:55.813Z,99.90
2022-10-19T06:08:22.902Z,99.90
2022-10-19T06:10:49.475Z,99.90
2022-10-19T06:13:17.138Z,99.90
2022-10-19T06:15:43.992Z,99.90
2022-10-19T06:18:12.011Z,99.90
2022-10-19T06:20:41.533Z,99.90
2022-10-19T06:23:08.636Z,99.90
2022-10-19T06:25:35.592Z,99.90
2022-10-19T06:28:02.344Z,99.90
2022-10-19T06:30:28.890Z,99.90
2022-10-19T06:32:55.548Z,99.90
2022-10-19T06:35:22.012Z,99.90
2022-10-19T06:37:48.422Z,99.90
2022-10-19T06:40:15.831Z,99.90
2022-10-19T06:42:42.332Z,99.90
2022-10-19T06:45:09.777Z,99.90
2022-10-19T06:47:36.884Z,99.90
2022-10-19T06:50:04.933Z,99.90
2022-10-19T06:52:32.523Z,99.90
2022-10-19T06:54:59.253Z,99.90
2022-10-19T06:57:25.723Z,99.90
2022-10-19T06:59:53.708Z,99.90
2022-10-19T07:02:20.463Z,99.90
2022-10-19T07:04:46.924Z,99.90
2022-10-19T07:07:13.343Z,99.90
2022-10-19T07:09:39.915Z,99.90
2022-10-19T07:12:06.511Z,99.90
2022-10-19T07:14:38.563Z,99.90
2022-10-19T07:17:05.682Z,99.90
2022-10-19T07:19:32.380Z,99.90
2022-10-19T07:21:58.792Z,99.90
2022-10-19T07:24:25.494Z,99.90
2022-10-19T07:26:51.960Z,99.90
2022-10-19T07:29:18.503Z,99.90
2022-10-19T07:31:44.929Z,99.90
2022-10-19T07:34:11.994Z,99.90
2022-10-19T07:36:39.565Z,99.90
2022-10-19T07:39:07.175Z,97.40
2022-10-19T07:41:34.683Z,95.60
2022-10-19T07:44:01.257Z,92.90
2022-10-19T07:46:29.602Z,91.00
2022-10-19T07:48:56.150Z,87.20
2022-10-19T07:51:22.699Z,84.00
2022-10-19T07:53:49.333Z,81.60
2022-10-19T07:56:16.847Z,78.00
2022-10-19T07:58:43.692Z,75.70
2022-10-19T08:01:11.960Z,74.90
2022-10-19T08:06:25.400Z,71.90
2022-10-19T08:08:52.528Z,71.70
2022-10-19T08:11:21.218Z,71.00
2022-10-19T08:13:47.875Z,71.60
2022-10-19T08:16:34.054Z,70.90
2022-10-19T08:19:02.334Z,70.00
2022-10-19T08:21:29.604Z,69.40
2022-10-19T08:23:56.048Z,70.10
2022-10-19T08:26:22.727Z,71.90
2022-10-19T08:28:51.750Z,74.00
2022-10-19T08:31:19.632Z,79.70
2022-10-19T08:33:46.111Z,84.60
2022-10-19T08:36:13.415Z,90.20
2022-10-19T08:38:40.607Z,93.80
2022-10-19T08:41:15.192Z,95.70
2022-10-19T08:43:48.432Z,98.60
2022-10-19T08:46:25.107Z,99.60
2022-10-19T08:48:51.789Z,99.00
2022-10-19T08:51:18.308Z,97.00
2022-10-19T08:53:44.706Z,97.60
2022-10-19T08:56:26.918Z,95.90
2022-10-19T08:59:12.560Z,94.20
2022-10-19T09:01:47.193Z,91.50
2022-10-19T09:04:16.628Z,86.20
2022-10-19T09:06:56.895Z,82.80
2022-10-19T09:09:23.480Z,78.90
2022-10-19T09:11:51.503Z,72.70
2022-10-19T09:14:25.658Z,70.40
2022-10-19T09:16:52.473Z,68.90
2022-10-19T09:19:25.509Z,67.00
2022-10-19T09:21:56.342Z,64.90
2022-10-19T09:24:37.266Z,64.60
2022-10-19T09:27:03.820Z,63.10
2022-10-19T09:29:36.503Z,62.60
2022-10-19T09:32:04.401Z,63.60
2022-10-19T09:34:43.554Z,60.50
2022-10-19T09:37:18.850Z,59.50
2022-10-19T09:39:54.044Z,60.00
2022-10-19T09:42:22.433Z,58.20
2022-10-19T09:44:50.375Z,58.00
2022-10-19T09:47:26.032Z,59.80
2022-10-19T09:50:05.091Z,55.60
2022-10-19T09:52:31.477Z,54.60
2022-10-19T09:55:00.155Z,53.80
2022-10-19T09:57:26.591Z,54.20
2022-10-19T09:59:53.248Z,52.90
2022-10-19T10:02:21.654Z,53.30
2022-10-19T10:05:04.038Z,54.60
2022-10-19T10:07:34.130Z,52.30
2022-10-19T10:10:00.791Z,53.70
2022-10-19T10:12:27.391Z,53.70
2022-10-19T10:14:56.112Z,55.20
2022-10-19T10:17:27.075Z,54.40
2022-10-19T10:19:59.607Z,53.70
2022-10-19T10:22:33.935Z,54.10
2022-10-19T10:25:00.997Z,54.60
2022-10-19T10:27:30.290Z,52.30
2022-10-19T10:32:28.935Z,53.20
2022-10-19T10:35:01.042Z,53.00
2022-10-19T10:37:30.276Z,53.00
2022-10-19T10:40:00.332Z,52.20
2022-10-19T10:42:50.467Z,51.50
2022-10-19T10:45:24.761Z,53.90
2022-10-19T10:47:52.045Z,53.40
2022-10-19T10:50:30.631Z,54.50
2022-10-19T10:52:57.124Z,56.70
2022-10-19T10:55:23.603Z,57.70
2022-10-19T10:57:51.675Z,60.70
2022-10-19T11:00:21.927Z,59.10
2022-10-19T11:02:54.248Z,60.00
2022-10-19T11:05:39.146Z,60.60
2022-10-19T11:08:14.359Z,59.10
2022-10-19T11:10:49.300Z,58.70
2022-10-19T11:13:17.599Z,59.60
2022-10-19T11:15:43.972Z,63.10
2022-10-19T11:18:10.364Z,64.90
2022-10-19T11:20:41.188Z,68.50
2022-10-19T11:23:07.872Z,70.70
2022-10-19T11:25:45.895Z,74.30
2022-10-19T11:28:18.054Z,75.50
2022-10-19T11:30:55.108Z,79.90
2022-10-19T11:33:32.295Z,79.60
2022-10-19T11:35:59.503Z,81.80
2022-10-19T11:38:48.051Z,85.60
2022-10-19T11:41:33.539Z,85.10
2022-10-19T11:44:03.033Z,89.10
2022-10-19T11:46:50.400Z,88.60
2022-10-19T11:49:34.872Z,92.10
2022-10-19T11:52:18.616Z,93.40
2022-10-19T11:55:04.156Z,95.80
2022-10-19T11:57:47.368Z,96.40
2022-10-19T12:00:37.626Z,97.00
2022-10-19T12:03:23.151Z,98.70
2022-10-19T12:05:54.125Z,98.90
2022-10-19T12:08:42.579Z,98.80
2022-10-19T12:11:09.092Z,99.30
2022-10-19T12:13:48.068Z,99.90
2022-10-19T12:16:15.157Z,99.90
2022-10-19T12:18:47.435Z,99.90
2022-10-19T12:21:24.226Z,99.90
2022-10-19T12:23:51.623Z,99.90
2022-10-19T12:26:19.991Z,99.90
2022-10-19T12:28:52.047Z,99.90
2022-10-19T12:31:18.551Z,99.90
2022-10-19T12:33:57.171Z,99.90
2022-10-19T12:36:32.413Z,99.90
2022-10-19T12:39:21.514Z,99.90
2022-10-19T12:41:54.269Z,99.90
2022-10-19T12:44:20.678Z,99.90
2022-10-19T12:46:53.118Z,99.90
2022-10-19T12:49:30.237Z,99.90
2022-10-19T12:51:57.555Z,99.90
2022-10-19T12:54:25.044Z,99.90
2022-10-19T12:56:55.709Z,99.90
2022-10-19T12:59:24.852Z,99.90
2022-10-19T13:01:51.843Z,99.90
2022-10-19T13:04:20.948Z,99.90
2022-10-19T13:06:51.751Z,99.90
2022-10-19T13:09:22.889Z,99.90
2022-10-19T13:12:09.571Z,99.90
2022-10-19T13:14:56.251Z,99.90
2022-10-19T13:17:38.156Z,99.90
2022-10-19T13:20:25.319Z,99.90
2022-10-19T13:23:12.963Z,99.90
2022-10-19T13:25:39.880Z,99.90
2022-10-19T13:28:06.283Z,99.90
2022-10-19T13:30:35.586Z,99.90
2022-10-19T13:33:20.871Z,99.90
2022-10-19T13:35:47.319Z,99.90
2022-10-19T13:38:16.759Z,99.90
2022-10-19T13:40:49.303Z,99.90
2022-10-19T13:43:20.843Z,99.90
2022-10-19T13:45:54.578Z,99.90
2022-10-19T13:48:30.751Z,99.90
2022-10-19T13:51:01.411Z,99.90
2022-10-19T13:53:38.324Z,99.90
2022-10-19T13:56:16.672Z,99.90
2022-10-19T13:58:43.063Z,99.90
2022-10-19T14:01:22.501Z,99.90
2022-10-19T14:03:58.309Z,99.90
2022-10-19T14:06:31.450Z,99.90
2022-10-19T14:09:15.216Z,99.90
2022-10-19T14:11:43.039Z,99.90
2022-10-19T14:14:15.508Z,99.90
2022-10-19T14:16:50.070Z,99.90
2022-10-19T14:19:26.585Z,99.90
2022-10-19T14:21:54.577Z,99.90
2022-10-19T14:24:28.753Z,99.90
2022-10-19T14:26:55.776Z,99.90
2022-10-19T14:29:22.263Z,99.90
2022-10-19T14:31:48.854Z,99.90
2022-10-19T14:34:16.144Z,99.90
2022-10-19T14:36:47.711Z,99.90
2022-10-19T14:39:25.810Z,99.90
2022-10-19T14:41:54.364Z,99.90
2022-10-19T14:44:27.780Z,99.90
2022-10-19T14:46:54.215Z,99.90
2022-10-19T14:49:20.675Z,99.90
2022-10-19T14:51:50.172Z,99.90
2022-10-19T14:54:16.547Z,99.90
2022-10-19T14:56:46.834Z,99.90
2022-10-19T14:59:13.244Z,99.90
2022-10-19T15:01:40.305Z,99.90
2022-10-19T15:04:06.862Z,99.90
2022-10-19T15:06:35.996Z,99.90
2022-10-19T15:09:04.723Z,99.90
2022-10-19T15:11:36.204Z,99.90
2022-10-19T15:14:05.917Z,99.90
2022-10-19T15:16:34.622Z,99.90
2022-10-19T15:19:05.319Z,99.90
2022-10-19T15:21:33.618Z,99.90
2022-10-19T15:24:07.843Z,99.90
2022-10-19T15:26:34.967Z,99.90
2022-10-19T15:29:08.512Z,99.90
2022-10-19T15:31:35.019Z,99.90
2022-10-19T15:34:02.067Z,99.90
2022-10-19T15:36:29.856Z,99.90
2022-10-19T15:39:17.724Z,99.90
2022-10-19T15:41:51.247Z,99.90
2022-10-19T15:44:40.684Z,99.90
2022-10-19T15:47:16.318Z,99.90
2022-10-19T15:49:42.744Z,99.90
2022-10-19T15:52:16.645Z,99.90
2022-10-19T15:54:43.124Z,99.90
2022-10-19T15:57:24.342Z,99.90
2022-10-19T15:59:50.811Z,99.90
2022-10-19T16:02:17.234Z,99.90
2022-10-19T16:04:43.660Z,99.90
2022-10-19T16:07:14.847Z,99.90
2022-10-19T16:09:41.273Z,99.90
2022-10-19T16:12:09.425Z,99.90
2022-10-19T16:14:36.780Z,99.90
2022-10-19T16:17:03.924Z,99.90
2022-10-19T16:19:30.511Z,99.90
2022-10-19T16:21:56.939Z,99.90
2022-10-19T16:24:23.431Z,99.90
2022-10-19T16:26:49.879Z,99.90
2022-10-19T16:29:16.361Z,99.90
2022-10-19T16:31:42.773Z,99.90
2022-10-19T16:34:09.197Z,99.90
2022-10-19T16:36:35.657Z,99.90
2022-10-19T16:39:02.572Z,99.90
2022-10-19T16:41:29.050Z,99.90
2022-10-19T16:43:56.011Z,99.90
2022-10-19T16:46:22.787Z,99.90
2022-10-19T16:48:49.264Z,99.90
2022-10-19T16:51:26.678Z,99.90
2022-10-19T16:53:55.239Z,99.90
2022-10-19T16:56:21.715Z,99.90
2022-10-19T16:58:48.152Z,99.90
2022-10-19T17:01:18.279Z,99.90
2022-10-19T17:03:46.264Z,99.90
2022-10-19T17:06:12.931Z,99.90
2022-10-19T17:09:02.646Z,99.90
2022-10-19T17:11:33.236Z,99.90
2022-10-19T17:14:00.689Z,99.90
2022-10-19T17:16:28.547Z,99.90
2022-10-19T17:18:56.374Z,99.90
2022-10-19T17:21:24.136Z,99.90
2022-10-19T17:23:54.678Z,99.90
2022-10-19T17:26:25.053Z,99.90
2022-10-19T17:28:51.470Z,99.90
2022-10-19T17:31:17.951Z,99.90
2022-10-19T17:33:44.551Z,99.90
2022-10-19T17:36:15.249Z,99.90
2022-10-19T17:38:42.056Z,99.90
2022-10-19T17:41:11.012Z,99.90
2022-10-19T17:43:38.416Z,99.90
2022-10-19T17:46:06.137Z,99.90
2022-10-19T17:48:33.707Z,99.90
2022-10-19T17:51:01.058Z,99.90
2022-10-19T17:53:27.685Z,99.90
2022-10-19T17:55:54.592Z,99.90
2022-10-19T17:58:21.424Z,99.90
2022-10-19T18:00:52.364Z,99.90
2022-10-19T18:03:18.877Z,99.90
2022-10-19T18:05:45.386Z,99.90
2022-10-19T18:08:11.803Z,99.90
2022-10-19T18:10:38.299Z,99.90
2022-10-19T18:13:04.707Z,99.90
2022-10-19T18:15:31.176Z,99.90
2022-10-19T18:17:58.028Z,99.90
2022-10-19T18:20:24.433Z,99.90
2022-10-19T18:22:50.852Z,99.90
2022-10-19T18:25:21.718Z,99.90
2022-10-19T18:27:57.221Z,99.90
2022-10-19T18:30:23.646Z,99.90
2022-10-19T18:32:50.084Z,99.90
2022-10-19T18:35:16.603Z,99.90
2022-10-19T18:37:43.016Z,99.90
2022-10-19T18:40:11.622Z,99.90
2022-10-19T18:42:38.164Z,99.90
2022-10-19T18:45:04.819Z,99.90
2022-10-19T18:47:31.424Z,99.90
2022-10-19T18:49:57.891Z,99.90
2022-10-19T18:52:24.345Z,99.90
2022-10-19T18:54:50.760Z,99.90
2022-10-19T18:57:17.224Z,99.90
2022-10-19T18:59:43.682Z,99.90
2022-10-19T19:02:17.240Z,99.90
2022-10-19T19:04:49.331Z,99.90
2022-10-19T19:07:15.740Z,99.90
2022-10-19T19:09:42.595Z,99.90
2022-10-19T19:12:09.362Z,99.90
2022-10-19T19:14:37.565Z,99.90
2022-10-19T19:17:04.112Z,99.90
2022-10-19T19:19:30.527Z,99.90
2022-10-19T19:21:57.980Z,99.90
2022-10-19T19:24:28.109Z,99.90
2022-10-19T19:26:54.941Z,99.90
2022-10-19T19:29:21.651Z,99.90
2022-10-19T19:31:48.367Z,99.90
2022-10-19T19:34:15.214Z,99.90
2022-10-19T19:36:46.807Z,99.90
2022-10-19T19:39:14.268Z,99.90
2022-10-19T19:41:40.874Z,99.90
2022-10-19T19:44:07.296Z,99.90
2022-10-19T19:46:33.818Z,99.90
2022-10-19T19:49:00.977Z,99.90
2022-10-19T19:51:27.944Z,99.90
2022-10-19T19:53:54.446Z,99.90
2022-10-19T19:56:21.392Z,99.90
2022-10-19T19:58:47.887Z,99.90
2022-10-19T20:01:21.126Z,99.90
2022-10-19T20:03:47.821Z,99.90
2022-10-19T20:06:15.476Z,99.90
2022-10-19T20:08:42.048Z,99.90
2022-10-19T20:11:10.169Z,99.90
2022-10-19T20:13:37.052Z,99.90
2022-10-19T20:16:12.456Z,99.90
2022-10-19T20:18:39.533Z,99.90
2022-10-19T20:21:06.194Z,99.90
2022-10-19T20:23:32.992Z,99.90
2022-10-19T20:25:59.402Z,99.90
2022-10-19T20:28:26.537Z,99.90
2022-10-19T20:31:03.302Z,99.90
2022-10-19T20:33:30.864Z,99.90
2022-10-19T20:35:57.410Z,99.90
2022-10-19T20:38:25.190Z,99.90
2022-10-19T20:40:52.030Z,99.90
2022-10-19T20:43:18.569Z,99.90
2022-10-19T20:45:45.097Z,99.90
2022-10-19T20:48:11.579Z,99.90
2022-10-19T20:50:38.211Z,99.90
2022-10-19T20:53:04.832Z,99.90
2022-10-19T20:55:32.419Z,99.90
2022-10-19T20:57:59.030Z,99.90
2022-10-19T21:00:25.452Z,99.90
2022-10-19T21:02:53.487Z,99.90
2022-10-19T21:05:19.896Z,99.90
2022-10-19T21:07:46.420Z,99.90
2022-10-19T21:10:12.899Z,99.90
2022-10-19T21:12:39.382Z,99.90
2022-10-19T21:15:06.055Z,99.90
2022-10-19T21:17:32.642Z,99.90
2022-10-19T21:19:59.174Z,99.90
2022-10-19T21:22:25.655Z,99.90
2022-10-19T21:24:52.187Z,99.90
2022-10-19T21:27:18.635Z,99.90
2022-10-19T21:29:45.097Z,99.90
2022-10-19T21:32:11.612Z,99.90
2022-10-19T21:34:38.119Z,99.90
2022-10-19T21:37:04.704Z,99.90
2022-10-19T21:39:31.274Z,99.90
2022-10-19T21:41:57.930Z,99.90
2022-10-19T21:44:24.455Z,99.90
2022-10-19T21:46:50.961Z,99.90
2022-10-19T21:49:17.526Z,99.90
2022-10-19T21:51:44.021Z,99.90
2022-10-19T21:54:12.396Z,99.90
2022-10-19T21:56:38.948Z,99.90
2022-10-19T21:59:05.752Z,99.90
2022-10-19T22:01:38.706Z,99.90
2022-10-19T22:04:08.849Z,99.90
2022-10-19T22:06:35.997Z,99.90
2022-10-19T22:09:04.172Z,99.90
2022-10-19T22:11:30.817Z,99.90
2022-10-19T22:13:58.349Z,99.90
2022-10-19T22:16:25.591Z,99.90
2022-10-19T22:18:52.604Z,99.90
2022-10-19T22:21:21.608Z,99.90
2022-10-19T22:23:55.386Z,99.90
2022-10-19T22:26:23.657Z,99.90
2022-10-19T22:28:50.233Z,99.90
2022-10-19T22:31:16.832Z,99.90
2022-10-19T22:33:49.501Z,99.90
2022-10-19T22:36:16.178Z,99.90
2022-10-19T22:38:42.720Z,99.90
2022-10-19T22:41:20.663Z,99.90
2022-10-19T22:43:54.811Z,99.90
2022-10-19T22:46:24.548Z,99.90
2022-10-19T22:49:01.638Z,99.90
2022-10-19T22:51:31.074Z,99.90
2022-10-19T22:53:57.649Z,99.90
2022-10-19T22:56:31.522Z,99.90
2022-10-19T22:58:58.915Z,99.90
2022-10-19T23:01:32.001Z,99.90
2022-10-19T23:03:59.069Z,99.90
2022-10-19T23:06:25.784Z,99.90
2022-10-19T23:08:56.325Z,99.90
2022-10-19T23:11:26.021Z,99.90
2022-10-19T23:13:56.793Z,99.90
2022-10-19T23:16:35.506Z,99.90
2022-10-19T23:19:06.359Z,99.90
2022-10-19T23:21:44.847Z,99.90
2022-10-19T23:24:23.415Z,99.90
2022-10-19T23:26:57.795Z,99.90
2022-10-19T23:29:30.221Z,99.90
2022-10-19T23:32:00.169Z,99.90
2022-10-19T23:34:40.236Z,99.90
2022-10-19T23:37:10.096Z,99.90
2022-10-19T23:39:36.661Z,99.90
2022-10-19T23:42:03.368Z,99.90
2022-10-19T23:44:33.239Z,99.90
2022-10-19T23:47:06.560Z,99.90
2022-10-19T23:49:38.447Z,99.90
2022-10-19T23:52:07.525Z,99.90
2022-10-19T23:54:36.873Z,99.90
2022-10-19T23:57:03.825Z,99.90
2022-10-19T23:59:35.113Z,99.90
